sensor_id;sensor_type;location;lat;lon;timestamp;P1;durP1;ratioP1;P2;durP2;ratioP2
9445;SDS011;4761;49.490;10.908;2023-08-08T00:00:06;1.70;;;1.38;;
9445;SDS011;4761;49.490;10.908;2023-08-08T00:02:33;1.55;;;1.27;;
9445;SDS011;4761;49.490;10.908;2023-08-08T00:04:59;2.38;;;1.48;;
9445;SDS011;4761;49.490;10.908;2023-08-08T00:07:25;1.50;;;1.40;;
9445;SDS011;4761;49.490;10.908;2023-08-08T00:09:51;1.75;;;1.40;;
9445;SDS011;4761;49.490;10.908;2023-08-08T00:12:16;1.88;;;1.55;;
9445;SDS011;4761;49.490;10.908;2023-08-08T00:14:42;1.55;;;1.45;;
9445;SDS011;4761;49.490;10.908;2023-08-08T00:17:07;1.95;;;1.50;;
9445;SDS011;4761;49.490;10.908;2023-08-08T00:19:33;1.50;;;1.40;;
9445;SDS011;4761;49.490;10.908;2023-08-08T00:21:59;2.00;;;1.50;;
9445;SDS011;4761;49.490;10.908;2023-08-08T00:24:24;1.50;;;1.40;;
9445;SDS011;4761;49.490;10.908;2023-08-08T00:26:50;1.73;;;1.63;;
9445;SDS011;4761;49.490;10.908;2023-08-08T00:29:15;1.50;;;1.40;;
9445;SDS011;4761;49.490;10.908;2023-08-08T00:31:41;1.73;;;1.60;;
9445;SDS011;4761;49.490;10.908;2023-08-08T00:34:06;1.40;;;1.27;;
9445;SDS011;4761;49.490;10.908;2023-08-08T00:36:32;1.63;;;1.50;;
9445;SDS011;4761;49.490;10.908;2023-08-08T00:38:57;1.67;;;1.50;;
9445;SDS011;4761;49.490;10.908;2023-08-08T00:41:23;1.33;;;1.23;;
9445;SDS011;4761;49.490;10.908;2023-08-08T00:43:48;1.50;;;1.40;;
9445;SDS011;4761;49.490;10.908;2023-08-08T00:46:15;1.50;;;1.20;;
9445;SDS011;4761;49.490;10.908;2023-08-08T00:48:45;1.63;;;1.52;;
9445;SDS011;4761;49.490;10.908;2023-08-08T00:51:11;1.50;;;1.30;;
9445;SDS011;4761;49.490;10.908;2023-08-08T00:53:36;1.83;;;1.50;;
9445;SDS011;4761;49.490;10.908;2023-08-08T00:56:02;1.40;;;1.30;;
9445;SDS011;4761;49.490;10.908;2023-08-08T00:58:28;1.70;;;1.60;;
9445;SDS011;4761;49.490;10.908;2023-08-08T01:00:54;1.63;;;1.50;;
9445;SDS011;4761;49.490;10.908;2023-08-08T01:03:22;1.45;;;1.20;;
9445;SDS011;4761;49.490;10.908;2023-08-08T01:05:48;1.50;;;1.40;;
9445;SDS011;4761;49.490;10.908;2023-08-08T01:08:22;1.40;;;1.30;;
9445;SDS011;4761;49.490;10.908;2023-08-08T01:10:52;1.48;;;1.33;;
9445;SDS011;4761;49.490;10.908;2023-08-08T01:13:19;1.65;;;1.40;;
9445;SDS011;4761;49.490;10.908;2023-08-08T01:15:47;1.48;;;1.38;;
9445;SDS011;4761;49.490;10.908;2023-08-08T01:18:14;1.98;;;1.60;;
9445;SDS011;4761;49.490;10.908;2023-08-08T01:20:40;1.30;;;1.20;;
9445;SDS011;4761;49.490;10.908;2023-08-08T01:23:09;1.35;;;1.23;;
9445;SDS011;4761;49.490;10.908;2023-08-08T01:25:39;1.40;;;1.30;;
9445;SDS011;4761;49.490;10.908;2023-08-08T01:28:06;1.33;;;1.23;;
9445;SDS011;4761;49.490;10.908;2023-08-08T01:30:32;1.30;;;1.20;;
9445;SDS011;4761;49.490;10.908;2023-08-08T01:32:58;1.60;;;1.50;;
9445;SDS011;4761;49.490;10.908;2023-08-08T01:35:24;1.40;;;1.30;;
9445;SDS011;4761;49.490;10.908;2023-08-08T01:37:54;1.33;;;1.23;;
9445;SDS011;4761;49.490;10.908;2023-08-08T01:40:39;1.30;;;1.20;;
9445;SDS011;4761;49.490;10.908;2023-08-08T01:43:07;1.30;;;1.20;;
9445;SDS011;4761;49.490;10.908;2023-08-08T01:45:33;1.40;;;1.30;;
9445;SDS011;4761;49.490;10.908;2023-08-08T01:47:59;1.27;;;1.17;;
9445;SDS011;4761;49.490;10.908;2023-08-08T01:50:24;1.85;;;1.30;;
9445;SDS011;4761;49.490;10.908;2023-08-08T01:52:50;1.20;;;1.10;;
9445;SDS011;4761;49.490;10.908;2023-08-08T01:55:16;1.73;;;1.30;;
9445;SDS011;4761;49.490;10.908;2023-08-08T01:57:41;1.45;;;1.33;;
9445;SDS011;4761;49.490;10.908;2023-08-08T02:00:07;1.33;;;1.23;;
9445;SDS011;4761;49.490;10.908;2023-08-08T02:02:33;1.30;;;1.20;;
9445;SDS011;4761;49.490;10.908;2023-08-08T02:05:00;1.30;;;1.17;;
9445;SDS011;4761;49.490;10.908;2023-08-08T02:07:26;2.45;;;1.30;;
9445;SDS011;4761;49.490;10.908;2023-08-08T02:09:51;1.10;;;1.00;;
9445;SDS011;4761;49.490;10.908;2023-08-08T02:12:17;1.30;;;1.20;;
9445;SDS011;4761;49.490;10.908;2023-08-08T02:14:43;1.67;;;1.20;;
9445;SDS011;4761;49.490;10.908;2023-08-08T02:17:08;1.27;;;1.10;;
9445;SDS011;4761;49.490;10.908;2023-08-08T02:19:34;1.20;;;1.10;;
9445;SDS011;4761;49.490;10.908;2023-08-08T02:21:59;1.20;;;1.10;;
9445;SDS011;4761;49.490;10.908;2023-08-08T02:24:25;1.40;;;1.30;;
9445;SDS011;4761;49.490;10.908;2023-08-08T02:26:50;1.48;;;1.25;;
9445;SDS011;4761;49.490;10.908;2023-08-08T02:29:15;1.30;;;1.20;;
9445;SDS011;4761;49.490;10.908;2023-08-08T02:31:41;1.30;;;1.20;;
9445;SDS011;4761;49.490;10.908;2023-08-08T02:34:06;1.50;;;1.25;;
9445;SDS011;4761;49.490;10.908;2023-08-08T02:36:32;1.38;;;1.27;;
9445;SDS011;4761;49.490;10.908;2023-08-08T02:38:58;1.70;;;1.20;;
9445;SDS011;4761;49.490;10.908;2023-08-08T02:41:23;1.40;;;1.30;;
9445;SDS011;4761;49.490;10.908;2023-08-08T02:43:49;1.40;;;1.23;;
9445;SDS011;4761;49.490;10.908;2023-08-08T02:46:14;1.17;;;1.08;;
9445;SDS011;4761;49.490;10.908;2023-08-08T02:48:40;1.25;;;1.00;;
9445;SDS011;4761;49.490;10.908;2023-08-08T02:51:05;1.30;;;1.20;;
9445;SDS011;4761;49.490;10.908;2023-08-08T02:53:31;1.10;;;1.00;;
9445;SDS011;4761;49.490;10.908;2023-08-08T02:55:56;1.08;;;0.98;;
9445;SDS011;4761;49.490;10.908;2023-08-08T02:58:22;1.17;;;1.05;;
9445;SDS011;4761;49.490;10.908;2023-08-08T03:00:48;2.58;;;1.10;;
9445;SDS011;4761;49.490;10.908;2023-08-08T03:03:13;1.80;;;1.35;;
9445;SDS011;4761;49.490;10.908;2023-08-08T03:05:39;1.40;;;1.30;;
9445;SDS011;4761;49.490;10.908;2023-08-08T03:08:05;1.30;;;1.10;;
9445;SDS011;4761;49.490;10.908;2023-08-08T03:10:31;1.23;;;1.13;;
9445;SDS011;4761;49.490;10.908;2023-08-08T03:12:56;1.33;;;1.23;;
9445;SDS011;4761;49.490;10.908;2023-08-08T03:15:22;1.13;;;0.90;;
9445;SDS011;4761;49.490;10.908;2023-08-08T03:17:47;2.03;;;1.20;;
9445;SDS011;4761;49.490;10.908;2023-08-08T03:20:13;2.00;;;1.20;;
9445;SDS011;4761;49.490;10.908;2023-08-08T03:22:39;1.20;;;1.10;;
9445;SDS011;4761;49.490;10.908;2023-08-08T03:25:04;0.93;;;0.93;;
9445;SDS011;4761;49.490;10.908;2023-08-08T03:27:30;1.08;;;1.00;;
9445;SDS011;4761;49.490;10.908;2023-08-08T03:29:56;1.35;;;1.13;;
9445;SDS011;4761;49.490;10.908;2023-08-08T03:32:21;0.90;;;0.90;;
9445;SDS011;4761;49.490;10.908;2023-08-08T03:34:47;0.95;;;0.95;;
9445;SDS011;4761;49.490;10.908;2023-08-08T03:37:13;2.53;;;1.42;;
9445;SDS011;4761;49.490;10.908;2023-08-08T03:39:38;1.23;;;1.00;;
9445;SDS011;4761;49.490;10.908;2023-08-08T03:42:04;1.08;;;0.98;;
9445;SDS011;4761;49.490;10.908;2023-08-08T03:44:30;0.90;;;0.90;;
9445;SDS011;4761;49.490;10.908;2023-08-08T03:46:55;1.00;;;1.00;;
9445;SDS011;4761;49.490;10.908;2023-08-08T03:49:21;1.27;;;1.13;;
9445;SDS011;4761;49.490;10.908;2023-08-08T03:51:46;1.05;;;1.00;;
9445;SDS011;4761;49.490;10.908;2023-08-08T03:54:13;0.85;;;0.85;;
9445;SDS011;4761;49.490;10.908;2023-08-08T03:56:40;1.00;;;1.00;;
9445;SDS011;4761;49.490;10.908;2023-08-08T03:59:05;1.10;;;1.00;;
9445;SDS011;4761;49.490;10.908;2023-08-08T04:01:31;1.45;;;1.00;;
9445;SDS011;4761;49.490;10.908;2023-08-08T04:03:57;1.08;;;0.98;;
9445;SDS011;4761;49.490;10.908;2023-08-08T04:06:22;1.52;;;1.08;;
9445;SDS011;4761;49.490;10.908;2023-08-08T04:08:48;1.10;;;1.00;;
9445;SDS011;4761;49.490;10.908;2023-08-08T04:11:13;1.00;;;0.90;;
9445;SDS011;4761;49.490;10.908;2023-08-08T04:13:39;1.65;;;1.00;;
9445;SDS011;4761;49.490;10.908;2023-08-08T04:16:04;1.17;;;1.08;;
9445;SDS011;4761;49.490;10.908;2023-08-08T04:18:30;1.15;;;1.00;;
9445;SDS011;4761;49.490;10.908;2023-08-08T04:20:55;1.42;;;1.10;;
9445;SDS011;4761;49.490;10.908;2023-08-08T04:23:21;1.23;;;1.00;;
9445;SDS011;4761;49.490;10.908;2023-08-08T04:25:50;1.00;;;0.90;;
9445;SDS011;4761;49.490;10.908;2023-08-08T04:28:16;1.20;;;1.05;;
9445;SDS011;4761;49.490;10.908;2023-08-08T04:30:41;1.10;;;1.00;;
9445;SDS011;4761;49.490;10.908;2023-08-08T04:33:07;0.88;;;0.88;;
9445;SDS011;4761;49.490;10.908;2023-08-08T04:35:32;1.50;;;1.20;;
9445;SDS011;4761;49.490;10.908;2023-08-08T04:37:58;2.45;;;1.10;;
9445;SDS011;4761;49.490;10.908;2023-08-08T04:40:23;1.38;;;1.25;;
9445;SDS011;4761;49.490;10.908;2023-08-08T04:42:49;1.25;;;1.00;;
9445;SDS011;4761;49.490;10.908;2023-08-08T04:45:14;1.38;;;1.10;;
9445;SDS011;4761;49.490;10.908;2023-08-08T04:47:40;1.20;;;1.10;;
9445;SDS011;4761;49.490;10.908;2023-08-08T04:50:06;0.98;;;0.95;;
9445;SDS011;4761;49.490;10.908;2023-08-08T04:52:31;1.70;;;1.30;;
9445;SDS011;4761;49.490;10.908;2023-08-08T04:54:57;1.13;;;1.10;;
9445;SDS011;4761;49.490;10.908;2023-08-08T04:57:22;1.65;;;0.77;;
9445;SDS011;4761;49.490;10.908;2023-08-08T04:59:48;1.20;;;1.10;;
9445;SDS011;4761;49.490;10.908;2023-08-08T05:02:14;1.10;;;1.00;;
9445;SDS011;4761;49.490;10.908;2023-08-08T05:04:39;1.23;;;1.13;;
9445;SDS011;4761;49.490;10.908;2023-08-08T05:07:05;1.40;;;0.82;;
9445;SDS011;4761;49.490;10.908;2023-08-08T05:09:31;1.00;;;0.90;;
9445;SDS011;4761;49.490;10.908;2023-08-08T05:11:56;1.20;;;1.10;;
9445;SDS011;4761;49.490;10.908;2023-08-08T05:14:22;1.48;;;1.00;;
9445;SDS011;4761;49.490;10.908;2023-08-08T05:16:47;0.85;;;0.85;;
9445;SDS011;4761;49.490;10.908;2023-08-08T05:19:13;2.05;;;1.00;;
9445;SDS011;4761;49.490;10.908;2023-08-08T05:21:39;1.23;;;1.10;;
9445;SDS011;4761;49.490;10.908;2023-08-08T05:24:04;0.90;;;0.90;;
9445;SDS011;4761;49.490;10.908;2023-08-08T05:26:30;1.83;;;1.10;;
9445;SDS011;4761;49.490;10.908;2023-08-08T05:28:55;1.00;;;0.90;;
9445;SDS011;4761;49.490;10.908;2023-08-08T05:31:21;1.10;;;1.00;;
9445;SDS011;4761;49.490;10.908;2023-08-08T05:33:47;1.20;;;1.10;;
9445;SDS011;4761;49.490;10.908;2023-08-08T05:36:14;0.80;;;0.80;;
9445;SDS011;4761;49.490;10.908;2023-08-08T05:38:39;1.35;;;0.95;;
9445;SDS011;4761;49.490;10.908;2023-08-08T05:41:06;1.20;;;1.10;;
9445;SDS011;4761;49.490;10.908;2023-08-08T05:43:31;1.48;;;0.90;;
9445;SDS011;4761;49.490;10.908;2023-08-08T05:45:57;0.85;;;0.80;;
9445;SDS011;4761;49.490;10.908;2023-08-08T05:48:22;0.90;;;0.90;;
9445;SDS011;4761;49.490;10.908;2023-08-08T05:50:48;0.93;;;0.93;;
9445;SDS011;4761;49.490;10.908;2023-08-08T05:53:13;1.10;;;1.00;;
9445;SDS011;4761;49.490;10.908;2023-08-08T05:55:40;1.10;;;1.00;;
9445;SDS011;4761;49.490;10.908;2023-08-08T05:58:07;1.25;;;1.15;;
9445;SDS011;4761;49.490;10.908;2023-08-08T06:00:33;0.98;;;0.80;;
9445;SDS011;4761;49.490;10.908;2023-08-08T06:02:59;1.20;;;1.10;;
9445;SDS011;4761;49.490;10.908;2023-08-08T06:05:25;0.90;;;0.90;;
9445;SDS011;4761;49.490;10.908;2023-08-08T06:07:51;1.30;;;0.93;;
9445;SDS011;4761;49.490;10.908;2023-08-08T06:10:16;1.05;;;0.98;;
9445;SDS011;4761;49.490;10.908;2023-08-08T06:12:42;1.20;;;1.10;;
9445;SDS011;4761;49.490;10.908;2023-08-08T06:15:07;1.20;;;1.10;;
9445;SDS011;4761;49.490;10.908;2023-08-08T06:17:33;1.52;;;0.90;;
9445;SDS011;4761;49.490;10.908;2023-08-08T06:19:59;1.00;;;1.00;;
9445;SDS011;4761;49.490;10.908;2023-08-08T06:22:24;0.90;;;0.90;;
9445;SDS011;4761;49.490;10.908;2023-08-08T06:24:50;1.05;;;0.98;;
9445;SDS011;4761;49.490;10.908;2023-08-08T06:27:16;0.80;;;0.80;;
9445;SDS011;4761;49.490;10.908;2023-08-08T06:29:42;1.05;;;0.95;;
9445;SDS011;4761;49.490;10.908;2023-08-08T06:32:08;1.00;;;0.98;;
9445;SDS011;4761;49.490;10.908;2023-08-08T06:34:33;1.70;;;1.10;;
9445;SDS011;4761;49.490;10.908;2023-08-08T06:36:59;1.00;;;1.00;;
9445;SDS011;4761;49.490;10.908;2023-08-08T06:39:24;1.20;;;1.10;;
9445;SDS011;4761;49.490;10.908;2023-08-08T06:41:50;1.10;;;1.00;;
9445;SDS011;4761;49.490;10.908;2023-08-08T06:44:16;0.80;;;0.80;;
9445;SDS011;4761;49.490;10.908;2023-08-08T06:46:41;1.42;;;1.00;;
9445;SDS011;4761;49.490;10.908;2023-08-08T06:49:07;1.00;;;1.00;;
9445;SDS011;4761;49.490;10.908;2023-08-08T06:51:33;0.95;;;0.85;;
9445;SDS011;4761;49.490;10.908;2023-08-08T06:54:00;1.02;;;0.98;;
9445;SDS011;4761;49.490;10.908;2023-08-08T06:56:25;1.77;;;1.05;;
9445;SDS011;4761;49.490;10.908;2023-08-08T06:58:51;1.98;;;0.85;;
9445;SDS011;4761;49.490;10.908;2023-08-08T07:01:17;1.00;;;0.90;;
9445;SDS011;4761;49.490;10.908;2023-08-08T07:03:43;1.10;;;1.00;;
9445;SDS011;4761;49.490;10.908;2023-08-08T07:06:09;1.38;;;0.80;;
9445;SDS011;4761;49.490;10.908;2023-08-08T07:08:35;1.00;;;0.90;;
9445;SDS011;4761;49.490;10.908;2023-08-08T07:11:01;1.13;;;1.00;;
9445;SDS011;4761;49.490;10.908;2023-08-08T07:13:27;1.00;;;1.00;;
9445;SDS011;4761;49.490;10.908;2023-08-08T07:15:52;1.20;;;0.98;;
9445;SDS011;4761;49.490;10.908;2023-08-08T07:18:18;0.90;;;0.90;;
9445;SDS011;4761;49.490;10.908;2023-08-08T07:20:44;0.80;;;0.80;;
9445;SDS011;4761;49.490;10.908;2023-08-08T07:23:09;0.90;;;0.90;;
9445;SDS011;4761;49.490;10.908;2023-08-08T07:25:35;1.00;;;0.90;;
9445;SDS011;4761;49.490;10.908;2023-08-08T07:28:00;0.88;;;0.85;;
9445;SDS011;4761;49.490;10.908;2023-08-08T07:30:26;1.00;;;0.90;;
9445;SDS011;4761;49.490;10.908;2023-08-08T07:32:51;0.80;;;0.80;;
9445;SDS011;4761;49.490;10.908;2023-08-08T07:35:17;0.80;;;0.80;;
9445;SDS011;4761;49.490;10.908;2023-08-08T07:37:43;0.75;;;0.75;;
9445;SDS011;4761;49.490;10.908;2023-08-08T07:40:15;1.10;;;1.00;;
9445;SDS011;4761;49.490;10.908;2023-08-08T07:42:42;1.10;;;0.90;;
9445;SDS011;4761;49.490;10.908;2023-08-08T07:45:08;0.90;;;0.90;;
9445;SDS011;4761;49.490;10.908;2023-08-08T07:47:34;1.33;;;0.90;;
9445;SDS011;4761;49.490;10.908;2023-08-08T07:50:00;0.90;;;0.90;;
9445;SDS011;4761;49.490;10.908;2023-08-08T07:52:25;0.70;;;0.70;;
9445;SDS011;4761;49.490;10.908;2023-08-08T07:54:51;0.70;;;0.70;;
9445;SDS011;4761;49.490;10.908;2023-08-08T07:57:16;0.98;;;0.82;;
9445;SDS011;4761;49.490;10.908;2023-08-08T07:59:42;1.73;;;1.00;;
9445;SDS011;4761;49.490;10.908;2023-08-08T08:02:07;1.00;;;0.90;;
9445;SDS011;4761;49.490;10.908;2023-08-08T08:04:33;0.65;;;0.65;;
9445;SDS011;4761;49.490;10.908;2023-08-08T08:07:00;1.10;;;0.82;;
9445;SDS011;4761;49.490;10.908;2023-08-08T08:09:25;0.70;;;0.70;;
9445;SDS011;4761;49.490;10.908;2023-08-08T08:11:51;0.70;;;0.70;;
9445;SDS011;4761;49.490;10.908;2023-08-08T08:14:17;1.15;;;0.85;;
9445;SDS011;4761;49.490;10.908;2023-08-08T08:16:42;0.85;;;0.85;;
9445;SDS011;4761;49.490;10.908;2023-08-08T08:19:09;0.90;;;0.90;;
9445;SDS011;4761;49.490;10.908;2023-08-08T08:21:35;0.75;;;0.75;;
9445;SDS011;4761;49.490;10.908;2023-08-08T08:24:00;0.80;;;0.80;;
9445;SDS011;4761;49.490;10.908;2023-08-08T08:26:26;0.85;;;0.70;;
9445;SDS011;4761;49.490;10.908;2023-08-08T08:28:52;0.93;;;0.93;;
9445;SDS011;4761;49.490;10.908;2023-08-08T08:31:18;1.13;;;0.70;;
9445;SDS011;4761;49.490;10.908;2023-08-08T08:33:44;0.80;;;0.80;;
9445;SDS011;4761;49.490;10.908;2023-08-08T08:36:09;0.90;;;0.80;;
9445;SDS011;4761;49.490;10.908;2023-08-08T08:38:35;0.70;;;0.70;;
9445;SDS011;4761;49.490;10.908;2023-08-08T08:41:00;0.90;;;0.90;;
9445;SDS011;4761;49.490;10.908;2023-08-08T08:43:27;0.85;;;0.80;;
9445;SDS011;4761;49.490;10.908;2023-08-08T08:45:54;0.80;;;0.80;;
9445;SDS011;4761;49.490;10.908;2023-08-08T08:48:22;0.80;;;0.80;;
9445;SDS011;4761;49.490;10.908;2023-08-08T08:50:48;1.27;;;1.08;;
9445;SDS011;4761;49.490;10.908;2023-08-08T08:53:14;0.68;;;0.60;;
9445;SDS011;4761;49.490;10.908;2023-08-08T08:55:42;0.70;;;0.70;;
9445;SDS011;4761;49.490;10.908;2023-08-08T08:58:09;0.80;;;0.80;;
9445;SDS011;4761;49.490;10.908;2023-08-08T09:00:35;0.70;;;0.70;;
9445;SDS011;4761;49.490;10.908;2023-08-08T09:03:02;0.85;;;0.80;;
9445;SDS011;4761;49.490;10.908;2023-08-08T09:05:29;1.00;;;0.90;;
9445;SDS011;4761;49.490;10.908;2023-08-08T09:07:56;1.90;;;1.17;;
9445;SDS011;4761;49.490;10.908;2023-08-08T09:10:21;0.60;;;0.60;;
9445;SDS011;4761;49.490;10.908;2023-08-08T09:12:49;0.73;;;0.73;;
9445;SDS011;4761;49.490;10.908;2023-08-08T09:15:14;0.80;;;0.80;;
9445;SDS011;4761;49.490;10.908;2023-08-08T09:17:40;0.80;;;0.80;;
9445;SDS011;4761;49.490;10.908;2023-08-08T09:20:08;1.65;;;0.82;;
9445;SDS011;4761;49.490;10.908;2023-08-08T09:22:35;0.95;;;0.80;;
9445;SDS011;4761;49.490;10.908;2023-08-08T09:25:02;0.90;;;0.90;;
9445;SDS011;4761;49.490;10.908;2023-08-08T09:27:28;0.80;;;0.80;;
9445;SDS011;4761;49.490;10.908;2023-08-08T09:29:54;0.80;;;0.80;;
9445;SDS011;4761;49.490;10.908;2023-08-08T09:32:20;0.68;;;0.68;;
9445;SDS011;4761;49.490;10.908;2023-08-08T09:34:45;0.73;;;0.60;;
9445;SDS011;4761;49.490;10.908;2023-08-08T09:37:11;0.70;;;0.70;;
9445;SDS011;4761;49.490;10.908;2023-08-08T09:39:36;1.15;;;0.82;;
9445;SDS011;4761;49.490;10.908;2023-08-08T09:42:02;1.05;;;0.80;;
9445;SDS011;4761;49.490;10.908;2023-08-08T09:44:31;0.60;;;0.57;;
9445;SDS011;4761;49.490;10.908;2023-08-08T09:47:00;0.80;;;0.80;;
9445;SDS011;4761;49.490;10.908;2023-08-08T09:49:25;0.80;;;0.63;;
9445;SDS011;4761;49.490;10.908;2023-08-08T09:51:52;0.70;;;0.70;;
9445;SDS011;4761;49.490;10.908;2023-08-08T09:54:17;0.60;;;0.60;;
9445;SDS011;4761;49.490;10.908;2023-08-08T09:56:44;1.15;;;0.80;;
9445;SDS011;4761;49.490;10.908;2023-08-08T09:59:10;0.98;;;0.80;;
9445;SDS011;4761;49.490;10.908;2023-08-08T10:01:36;0.50;;;0.50;;
9445;SDS011;4761;49.490;10.908;2023-08-08T10:04:04;0.80;;;0.77;;
9445;SDS011;4761;49.490;10.908;2023-08-08T10:06:31;0.80;;;0.80;;
9445;SDS011;4761;49.490;10.908;2023-08-08T10:08:57;1.75;;;0.68;;
9445;SDS011;4761;49.490;10.908;2023-08-08T10:11:24;0.63;;;0.63;;
9445;SDS011;4761;49.490;10.908;2023-08-08T10:13:52;0.52;;;0.52;;
9445;SDS011;4761;49.490;10.908;2023-08-08T10:16:18;0.65;;;0.65;;
9445;SDS011;4761;49.490;10.908;2023-08-08T10:18:45;0.60;;;0.60;;
9445;SDS011;4761;49.490;10.908;2023-08-08T10:21:19;0.68;;;0.68;;
9445;SDS011;4761;49.490;10.908;2023-08-08T10:23:46;0.70;;;0.65;;
9445;SDS011;4761;49.490;10.908;2023-08-08T10:26:18;0.60;;;0.60;;
9445;SDS011;4761;49.490;10.908;2023-08-08T10:28:57;0.70;;;0.70;;
9445;SDS011;4761;49.490;10.908;2023-08-08T10:31:24;0.77;;;0.70;;
9445;SDS011;4761;49.490;10.908;2023-08-08T10:33:53;1.25;;;0.82;;
9445;SDS011;4761;49.490;10.908;2023-08-08T10:36:26;0.70;;;0.70;;
9445;SDS011;4761;49.490;10.908;2023-08-08T10:38:51;0.70;;;0.70;;
9445;SDS011;4761;49.490;10.908;2023-08-08T10:41:19;0.63;;;0.63;;
9445;SDS011;4761;49.490;10.908;2023-08-08T10:43:55;0.68;;;0.68;;
9445;SDS011;4761;49.490;10.908;2023-08-08T10:46:26;0.60;;;0.60;;
9445;SDS011;4761;49.490;10.908;2023-08-08T10:48:54;0.68;;;0.55;;
9445;SDS011;4761;49.490;10.908;2023-08-08T10:51:21;0.60;;;0.60;;
9445;SDS011;4761;49.490;10.908;2023-08-08T10:53:50;0.60;;;0.60;;
9445;SDS011;4761;49.490;10.908;2023-08-08T10:56:17;0.50;;;0.50;;
9445;SDS011;4761;49.490;10.908;2023-08-08T10:58:48;0.85;;;0.80;;
9445;SDS011;4761;49.490;10.908;2023-08-08T11:01:14;1.20;;;0.70;;
9445;SDS011;4761;49.490;10.908;2023-08-08T11:03:41;0.60;;;0.60;;
9445;SDS011;4761;49.490;10.908;2023-08-08T11:06:08;0.70;;;0.70;;
9445;SDS011;4761;49.490;10.908;2023-08-08T11:08:34;0.70;;;0.70;;
9445;SDS011;4761;49.490;10.908;2023-08-08T11:11:03;0.63;;;0.60;;
9445;SDS011;4761;49.490;10.908;2023-08-08T11:13:31;0.55;;;0.55;;
9445;SDS011;4761;49.490;10.908;2023-08-08T11:15:57;1.25;;;0.90;;
9445;SDS011;4761;49.490;10.908;2023-08-08T11:18:23;1.17;;;0.80;;
9445;SDS011;4761;49.490;10.908;2023-08-08T11:20:50;0.80;;;0.80;;
9445;SDS011;4761;49.490;10.908;2023-08-08T11:23:16;0.60;;;0.60;;
9445;SDS011;4761;49.490;10.908;2023-08-08T11:25:43;0.88;;;0.60;;
9445;SDS011;4761;49.490;10.908;2023-08-08T11:28:11;0.60;;;0.60;;
9445;SDS011;4761;49.490;10.908;2023-08-08T11:30:38;0.70;;;0.70;;
9445;SDS011;4761;49.490;10.908;2023-08-08T11:33:08;0.60;;;0.60;;
9445;SDS011;4761;49.490;10.908;2023-08-08T11:35:33;0.52;;;0.50;;
9445;SDS011;4761;49.490;10.908;2023-08-08T11:37:59;0.85;;;0.80;;
9445;SDS011;4761;49.490;10.908;2023-08-08T11:40:26;0.57;;;0.57;;
9445;SDS011;4761;49.490;10.908;2023-08-08T11:42:53;0.60;;;0.60;;
9445;SDS011;4761;49.490;10.908;2023-08-08T11:45:21;0.70;;;0.70;;
9445;SDS011;4761;49.490;10.908;2023-08-08T11:47:48;0.65;;;0.65;;
9445;SDS011;4761;49.490;10.908;2023-08-08T11:50:15;0.80;;;0.80;;
9445;SDS011;4761;49.490;10.908;2023-08-08T11:52:45;0.75;;;0.75;;
9445;SDS011;4761;49.490;10.908;2023-08-08T11:55:11;0.60;;;0.60;;
9445;SDS011;4761;49.490;10.908;2023-08-08T11:57:38;1.10;;;0.90;;
9445;SDS011;4761;49.490;10.908;2023-08-08T12:00:08;1.05;;;0.80;;
9445;SDS011;4761;49.490;10.908;2023-08-08T12:02:38;0.70;;;0.70;;
9445;SDS011;4761;49.490;10.908;2023-08-08T12:05:08;0.60;;;0.60;;
9445;SDS011;4761;49.490;10.908;2023-08-08T12:07:38;0.60;;;0.60;;
9445;SDS011;4761;49.490;10.908;2023-08-08T12:10:12;0.80;;;0.80;;
9445;SDS011;4761;49.490;10.908;2023-08-08T12:12:41;0.80;;;0.80;;
9445;SDS011;4761;49.490;10.908;2023-08-08T12:15:07;0.65;;;0.65;;
9445;SDS011;4761;49.490;10.908;2023-08-08T12:17:36;0.60;;;0.60;;
9445;SDS011;4761;49.490;10.908;2023-08-08T12:20:05;1.05;;;0.90;;
9445;SDS011;4761;49.490;10.908;2023-08-08T12:22:32;0.70;;;0.60;;
9445;SDS011;4761;49.490;10.908;2023-08-08T12:24:58;0.75;;;0.75;;
9445;SDS011;4761;49.490;10.908;2023-08-08T12:27:24;0.82;;;0.70;;
9445;SDS011;4761;49.490;10.908;2023-08-08T12:29:49;0.60;;;0.60;;
9445;SDS011;4761;49.490;10.908;2023-08-08T12:32:15;0.80;;;0.80;;
9445;SDS011;4761;49.490;10.908;2023-08-08T12:34:40;0.75;;;0.70;;
9445;SDS011;4761;49.490;10.908;2023-08-08T12:37:06;0.60;;;0.60;;
9445;SDS011;4761;49.490;10.908;2023-08-08T12:39:32;0.90;;;0.82;;
9445;SDS011;4761;49.490;10.908;2023-08-08T12:41:58;0.77;;;0.70;;
9445;SDS011;4761;49.490;10.908;2023-08-08T12:44:23;0.55;;;0.50;;
9445;SDS011;4761;49.490;10.908;2023-08-08T12:46:49;0.70;;;0.70;;
9445;SDS011;4761;49.490;10.908;2023-08-08T12:49:14;0.93;;;0.70;;
9445;SDS011;4761;49.490;10.908;2023-08-08T12:51:40;0.55;;;0.55;;
9445;SDS011;4761;49.490;10.908;2023-08-08T12:54:05;0.70;;;0.70;;
9445;SDS011;4761;49.490;10.908;2023-08-08T12:56:31;0.93;;;0.82;;
9445;SDS011;4761;49.490;10.908;2023-08-08T12:58:56;0.80;;;0.80;;
9445;SDS011;4761;49.490;10.908;2023-08-08T13:01:22;0.90;;;0.70;;
9445;SDS011;4761;49.490;10.908;2023-08-08T13:03:49;0.70;;;0.70;;
9445;SDS011;4761;49.490;10.908;2023-08-08T13:06:15;0.80;;;0.80;;
9445;SDS011;4761;49.490;10.908;2023-08-08T13:08:40;0.70;;;0.70;;
9445;SDS011;4761;49.490;10.908;2023-08-08T13:11:06;0.70;;;0.70;;
9445;SDS011;4761;49.490;10.908;2023-08-08T13:13:32;0.70;;;0.70;;
9445;SDS011;4761;49.490;10.908;2023-08-08T13:15:57;0.60;;;0.60;;
9445;SDS011;4761;49.490;10.908;2023-08-08T13:18:23;0.60;;;0.60;;
9445;SDS011;4761;49.490;10.908;2023-08-08T13:20:48;0.60;;;0.60;;
9445;SDS011;4761;49.490;10.908;2023-08-08T13:23:14;0.73;;;0.70;;
9445;SDS011;4761;49.490;10.908;2023-08-08T13:25:39;0.75;;;0.73;;
9445;SDS011;4761;49.490;10.908;2023-08-08T13:28:06;1.00;;;0.90;;
9445;SDS011;4761;49.490;10.908;2023-08-08T13:30:31;0.70;;;0.65;;
9445;SDS011;4761;49.490;10.908;2023-08-08T13:32:58;0.68;;;0.68;;
9445;SDS011;4761;49.490;10.908;2023-08-08T13:35:23;0.60;;;0.60;;
9445;SDS011;4761;49.490;10.908;2023-08-08T13:37:49;0.73;;;0.73;;
9445;SDS011;4761;49.490;10.908;2023-08-08T13:40:17;0.70;;;0.70;;
9445;SDS011;4761;49.490;10.908;2023-08-08T13:42:43;0.80;;;0.80;;
9445;SDS011;4761;49.490;10.908;2023-08-08T13:45:12;0.80;;;0.80;;
9445;SDS011;4761;49.490;10.908;2023-08-08T13:47:42;1.13;;;0.82;;
9445;SDS011;4761;49.490;10.908;2023-08-08T13:50:07;0.80;;;0.80;;
9445;SDS011;4761;49.490;10.908;2023-08-08T13:52:33;1.00;;;0.70;;
9445;SDS011;4761;49.490;10.908;2023-08-08T13:54:59;0.80;;;0.80;;
9445;SDS011;4761;49.490;10.908;2023-08-08T13:57:24;0.95;;;0.80;;
9445;SDS011;4761;49.490;10.908;2023-08-08T13:59:50;0.70;;;0.70;;
9445;SDS011;4761;49.490;10.908;2023-08-08T14:02:16;0.65;;;0.65;;
9445;SDS011;4761;49.490;10.908;2023-08-08T14:04:43;0.93;;;0.70;;
9445;SDS011;4761;49.490;10.908;2023-08-08T14:07:09;0.60;;;0.60;;
9445;SDS011;4761;49.490;10.908;2023-08-08T14:09:35;0.65;;;0.65;;
9445;SDS011;4761;49.490;10.908;2023-08-08T14:12:01;0.70;;;0.70;;
9445;SDS011;4761;49.490;10.908;2023-08-08T14:14:26;1.15;;;0.90;;
9445;SDS011;4761;49.490;10.908;2023-08-08T14:16:52;0.80;;;0.80;;
9445;SDS011;4761;49.490;10.908;2023-08-08T14:19:17;0.80;;;0.80;;
9445;SDS011;4761;49.490;10.908;2023-08-08T14:21:44;0.70;;;0.70;;
9445;SDS011;4761;49.490;10.908;2023-08-08T14:24:10;0.75;;;0.70;;
9445;SDS011;4761;49.490;10.908;2023-08-08T14:26:35;0.98;;;0.80;;
9445;SDS011;4761;49.490;10.908;2023-08-08T14:29:01;0.80;;;0.80;;
9445;SDS011;4761;49.490;10.908;2023-08-08T14:31:26;1.20;;;0.80;;
9445;SDS011;4761;49.490;10.908;2023-08-08T14:33:52;0.77;;;0.60;;
9445;SDS011;4761;49.490;10.908;2023-08-08T14:36:17;0.70;;;0.70;;
9445;SDS011;4761;49.490;10.908;2023-08-08T14:38:43;0.60;;;0.60;;
9445;SDS011;4761;49.490;10.908;2023-08-08T14:41:08;0.82;;;0.80;;
9445;SDS011;4761;49.490;10.908;2023-08-08T14:43:34;0.80;;;0.80;;
9445;SDS011;4761;49.490;10.908;2023-08-08T14:45:59;0.60;;;0.60;;
9445;SDS011;4761;49.490;10.908;2023-08-08T14:48:25;0.80;;;0.80;;
9445;SDS011;4761;49.490;10.908;2023-08-08T14:50:50;0.75;;;0.75;;
9445;SDS011;4761;49.490;10.908;2023-08-08T14:53:16;0.75;;;0.75;;